Terminal Aerodrome Forecast
Issued by NWS

Home | Current Version | Previous Version | Text Only | Print | Product List | Glossary On
Versions: 1 2 3 4 5 6 7 8 9 10 11 12 13 14 15 16 17 18 19 20 21 22 23 24 25 26 27
520
FTUS41 KPHI 202334
TAFMIV
TAF
KMIV 202334Z 2100/2124 01004KT P6SM FEW050
      TEMPO 2109/2111 3SM BR
     FM211500 01008KT P6SM FEW250
     FM212200 36004KT P6SM FEW250=

USA.gov is the U.S. government's official web portal to all federal, state and local government web resources and services.